createdAt,value
2023-02-08T00:01:27.420Z,13.33
2023-02-08T00:03:56.645Z,13.67
2023-02-08T00:06:24.754Z,13.70
2023-02-08T00:08:52.533Z,14.07
2023-02-08T00:11:21.909Z,13.80
2023-02-08T00:13:50.174Z,14.60
2023-02-08T00:16:18.309Z,13.43
2023-02-08T00:18:46.337Z,13.40
2023-02-08T00:21:16.890Z,15.07
2023-02-08T00:23:45.042Z,15.37
2023-02-08T00:26:13.811Z,13.77
2023-02-08T00:28:43.419Z,13.30
2023-02-08T00:31:11.454Z,13.47
2023-02-08T00:33:41.672Z,13.03
2023-02-08T00:36:10.337Z,12.63
2023-02-08T00:38:38.153Z,12.03
2023-02-08T00:41:06.354Z,12.50
2023-02-08T00:43:34.534Z,12.13
2023-02-08T00:46:03.802Z,12.40
2023-02-08T00:48:31.802Z,13.03
2023-02-08T00:51:01.305Z,13.30
2023-02-08T00:53:29.491Z,12.87
2023-02-08T00:55:57.814Z,12.40
2023-02-08T00:58:25.791Z,11.87
2023-02-08T01:00:54.292Z,13.37
2023-02-08T01:03:24.797Z,12.97
2023-02-08T01:05:54.056Z,13.73
2023-02-08T01:08:22.048Z,12.77
2023-02-08T01:10:49.807Z,12.63
2023-02-08T01:13:17.712Z,12.93
2023-02-08T01:15:45.842Z,13.50
2023-02-08T01:18:13.610Z,13.63
2023-02-08T01:20:42.676Z,13.93
2023-02-08T01:23:10.599Z,13.03
2023-02-08T01:25:38.372Z,12.87
2023-02-08T01:28:09.344Z,13.90
2023-02-08T01:30:38.755Z,13.70
2023-02-08T01:33:06.811Z,14.00
2023-02-08T01:35:34.525Z,14.10
2023-02-08T01:38:03.680Z,14.07
2023-02-08T01:40:31.462Z,14.00
2023-02-08T01:42:59.664Z,13.73
2023-02-08T01:45:30.032Z,13.03
2023-02-08T01:48:07.594Z,13.57
2023-02-08T01:50:43.748Z,13.23
2023-02-08T01:53:15.587Z,14.03
2023-02-08T01:55:48.787Z,15.07
2023-02-08T01:58:18.656Z,13.67
2023-02-08T02:00:47.689Z,12.87
2023-02-08T02:03:18.538Z,14.40
2023-02-08T02:05:49.970Z,13.13
2023-02-08T02:08:19.637Z,14.97
2023-02-08T02:10:49.403Z,14.03
2023-02-08T02:13:22.051Z,14.13
2023-02-08T02:15:50.547Z,14.30
2023-02-08T02:18:24.233Z,14.37
2023-02-08T02:21:09.822Z,14.80
2023-02-08T02:24:12.454Z,14.30
2023-02-08T02:27:10.718Z,14.53
2023-02-08T02:30:03.836Z,13.33
2023-02-08T02:32:42.668Z,14.50
2023-02-08T02:35:18.383Z,14.03
2023-02-08T02:37:54.562Z,14.17
2023-02-08T02:40:31.090Z,14.43
2023-02-08T02:43:24.700Z,14.77
2023-02-08T02:46:01.559Z,15.10
2023-02-08T02:48:36.643Z,14.30
2023-02-08T02:51:10.546Z,14.43
2023-02-08T02:53:46.117Z,14.20
2023-02-08T02:56:18.528Z,15.23
2023-02-08T02:58:46.637Z,14.80
2023-02-08T03:01:15.061Z,15.70
2023-02-08T03:03:44.188Z,15.20
2023-02-08T03:06:15.896Z,14.17
2023-02-08T03:09:18.975Z,14.17
2023-02-08T03:11:56.034Z,14.97
2023-02-08T03:14:40.701Z,14.57
2023-02-08T03:17:28.823Z,14.80
2023-02-08T03:20:06.831Z,14.73
2023-02-08T03:22:43.929Z,14.20
2023-02-08T03:25:17.876Z,14.17
2023-02-08T03:27:53.534Z,15.10
2023-02-08T03:30:26.614Z,16.07
2023-02-08T03:32:59.924Z,15.10
2023-02-08T03:35:34.029Z,14.13
2023-02-08T03:38:05.648Z,13.97
2023-02-08T03:40:38.765Z,13.77
2023-02-08T03:43:12.419Z,13.83
2023-02-08T03:45:43.482Z,15.27
2023-02-08T03:48:15.073Z,16.10
2023-02-08T03:50:48.362Z,14.77
2023-02-08T03:53:18.762Z,15.13
2023-02-08T03:55:49.223Z,15.33
2023-02-08T03:58:23.924Z,15.40
2023-02-08T04:00:58.063Z,14.00
2023-02-08T04:03:28.232Z,15.10
2023-02-08T04:05:57.636Z,14.43
2023-02-08T04:08:27.079Z,14.93
2023-02-08T04:10:54.983Z,14.43
2023-02-08T04:13:22.660Z,14.57
2023-02-08T04:15:50.441Z,15.10
2023-02-08T04:18:18.227Z,14.67
2023-02-08T04:20:45.956Z,15.33
2023-02-08T04:23:14.952Z,14.00
2023-02-08T04:25:42.647Z,15.10
2023-02-08T04:28:10.581Z,15.37
2023-02-08T04:30:38.342Z,15.00
2023-02-08T04:33:06.111Z,14.70
2023-02-08T04:35:34.300Z,14.70
2023-02-08T04:38:02.014Z,15.13
2023-02-08T04:40:31.459Z,14.53
2023-02-08T04:42:59.227Z,13.90
2023-02-08T04:45:28.236Z,14.90
2023-02-08T04:47:55.900Z,15.70
2023-02-08T04:50:25.670Z,16.00
2023-02-08T04:52:53.940Z,14.43
2023-02-08T04:55:21.701Z,14.60
2023-02-08T04:57:50.696Z,16.63
2023-02-08T05:00:19.201Z,16.03
2023-02-08T05:02:47.640Z,15.63
2023-02-08T05:05:15.340Z,15.10
2023-02-08T05:07:43.017Z,15.53
2023-02-08T05:10:10.984Z,15.60
2023-02-08T05:12:38.697Z,15.37
2023-02-08T05:15:08.362Z,15.87
2023-02-08T05:17:36.763Z,16.17
2023-02-08T05:20:04.857Z,16.80
2023-02-08T05:22:32.636Z,16.50
2023-02-08T05:25:00.445Z,18.03
2023-02-08T05:27:28.252Z,17.87
2023-02-08T05:29:58.121Z,16.73
2023-02-08T05:32:28.230Z,17.30
2023-02-08T05:34:55.892Z,16.90
2023-02-08T05:37:23.560Z,17.07
2023-02-08T05:39:51.314Z,18.00
2023-02-08T05:42:19.123Z,16.87
2023-02-08T05:44:46.833Z,17.97
2023-02-08T05:47:14.720Z,18.37
2023-02-08T05:49:43.714Z,18.90
2023-02-08T05:52:11.810Z,18.37
2023-02-08T05:54:39.742Z,17.43
2023-02-08T05:57:07.544Z,18.70
2023-02-08T05:59:35.262Z,17.80
2023-02-08T06:02:03.012Z,17.63
2023-02-08T06:04:30.840Z,18.37
2023-02-08T06:06:59.910Z,18.03
2023-02-08T06:09:27.930Z,19.50
2023-02-08T06:11:55.651Z,18.50
2023-02-08T06:14:23.431Z,19.40
2023-02-08T06:16:51.184Z,19.97
2023-02-08T06:19:19.169Z,18.90
2023-02-08T06:21:47.035Z,18.03
2023-02-08T06:24:16.914Z,19.70
2023-02-08T06:26:45.098Z,20.17
2023-02-08T06:29:12.795Z,20.30
2023-02-08T06:31:40.599Z,20.67
2023-02-08T06:34:08.591Z,19.20
2023-02-08T06:36:36.322Z,20.20
2023-02-08T06:39:04.261Z,20.50
2023-02-08T06:41:33.341Z,19.40
2023-02-08T06:44:02.185Z,21.67
2023-02-08T06:46:30.496Z,20.23
2023-02-08T06:49:00.294Z,20.47
2023-02-08T06:51:28.375Z,20.43
2023-02-08T06:54:11.426Z,21.30
2023-02-08T06:56:40.645Z,20.90
2023-02-08T07:10:21.803Z,21.93
2023-02-08T07:12:51.025Z,20.73
2023-02-08T07:15:18.970Z,21.23
2023-02-08T07:17:46.671Z,22.17
2023-02-08T07:20:14.736Z,21.27
2023-02-08T07:22:42.929Z,20.93
2023-02-08T07:25:11.021Z,21.90
2023-02-08T07:27:39.212Z,22.10
2023-02-08T07:30:09.840Z,22.47
2023-02-08T07:32:37.610Z,22.80
2023-02-08T07:35:05.578Z,22.30
2023-02-08T07:37:33.795Z,23.27
2023-02-08T07:40:01.568Z,23.20
2023-02-08T07:42:29.305Z,21.17
2023-02-08T07:44:57.031Z,21.60
2023-02-08T07:47:26.131Z,23.37
2023-02-08T07:49:53.900Z,24.00
2023-02-08T07:52:21.562Z,23.80
2023-02-08T07:54:52.066Z,23.20
2023-02-08T07:57:21.826Z,22.53
2023-02-08T07:59:49.576Z,24.00
2023-02-08T08:02:17.449Z,21.33
2023-02-08T08:04:46.494Z,22.07
2023-02-08T08:07:14.277Z,21.20
2023-02-08T08:09:42.010Z,23.13
2023-02-08T08:12:09.760Z,22.23
2023-02-08T08:14:37.516Z,23.13
2023-02-08T08:17:05.246Z,22.63
2023-02-08T08:19:33.039Z,24.33
2023-02-08T08:22:02.113Z,22.47
2023-02-08T08:24:31.648Z,23.27
2023-02-08T08:26:59.343Z,23.07
2023-02-08T08:29:27.134Z,22.10
2023-02-08T08:31:54.962Z,20.73
2023-02-08T08:34:29.563Z,20.13
2023-02-08T08:36:57.422Z,19.90
2023-02-08T08:39:27.921Z,18.60
2023-02-08T08:41:58.351Z,20.40
2023-02-08T08:44:26.317Z,18.30
2023-02-08T08:46:56.629Z,17.53
2023-02-08T08:49:24.307Z,17.50
2023-02-08T08:51:52.167Z,16.87
2023-02-08T08:54:20.683Z,17.67
2023-02-08T08:56:49.741Z,18.47
2023-02-08T08:59:17.489Z,18.43
2023-02-08T09:01:45.526Z,17.93
2023-02-08T09:04:13.505Z,16.97
2023-02-08T09:06:41.324Z,17.13
2023-02-08T09:09:09.478Z,17.77
2023-02-08T09:11:37.277Z,17.40
2023-02-08T09:14:06.755Z,17.30
2023-02-08T09:16:34.499Z,17.13
2023-02-08T09:19:02.531Z,16.73
2023-02-08T09:21:30.368Z,16.13
2023-02-08T09:23:58.182Z,16.17
2023-02-08T09:26:26.613Z,17.50
2023-02-08T09:28:54.689Z,16.30
2023-02-08T09:31:26.073Z,16.13
2023-02-08T09:33:55.909Z,15.50
2023-02-08T09:36:25.960Z,15.37
2023-02-08T09:39:00.222Z,16.20
2023-02-08T09:41:42.653Z,16.57
2023-02-08T09:44:22.283Z,15.67
2023-02-08T09:46:58.382Z,16.43
2023-02-08T09:49:32.005Z,16.30
2023-02-08T09:52:04.688Z,16.10
2023-02-08T09:54:37.509Z,16.13
2023-02-08T09:57:10.075Z,16.43
2023-02-08T09:59:41.884Z,14.97
2023-02-08T10:02:20.573Z,15.00
2023-02-08T10:04:58.381Z,16.83
2023-02-08T10:07:26.918Z,16.77
2023-02-08T10:09:57.694Z,16.27
2023-02-08T10:12:34.620Z,16.77
2023-02-08T10:15:12.420Z,16.43
2023-02-08T10:17:59.533Z,14.87
2023-02-08T10:20:38.358Z,14.37
2023-02-08T10:23:23.232Z,14.73
2023-02-08T10:26:12.910Z,15.60
2023-02-08T10:29:09.207Z,14.27
2023-02-08T10:32:03.317Z,14.57
2023-02-08T10:34:44.053Z,12.57
2023-02-08T10:37:18.018Z,14.10
2023-02-08T10:39:54.207Z,13.77
2023-02-08T10:42:27.049Z,14.17
2023-02-08T10:45:18.930Z,12.77
2023-02-08T10:47:54.332Z,12.80
2023-02-08T10:50:30.385Z,11.03
2023-02-08T10:52:58.576Z,11.67
2023-02-08T10:55:26.686Z,12.13
2023-02-08T10:57:58.304Z,12.30
2023-02-08T11:00:28.627Z,12.90
2023-02-08T11:03:00.681Z,12.30
2023-02-08T11:05:36.079Z,11.97
2023-02-08T11:08:08.522Z,13.33
2023-02-08T11:10:37.458Z,11.00
2023-02-08T11:13:15.794Z,11.10
2023-02-08T11:15:48.071Z,11.80
2023-02-08T11:18:23.195Z,11.77
2023-02-08T11:20:54.484Z,10.23
2023-02-08T11:23:26.442Z,12.00
2023-02-08T11:25:55.707Z,11.50
2023-02-08T11:28:30.409Z,11.57
2023-02-08T11:31:03.619Z,12.13
2023-02-08T11:33:31.523Z,11.37
2023-02-08T11:36:07.387Z,10.77
2023-02-08T11:38:37.668Z,10.87
2023-02-08T11:41:15.617Z,12.00
2023-02-08T11:43:44.270Z,11.00
2023-02-08T11:46:12.484Z,10.47
2023-02-08T11:48:45.441Z,8.97
2023-02-08T11:51:24.999Z,9.13
2023-02-08T11:53:52.767Z,8.17
2023-02-08T11:56:23.382Z,8.60
2023-02-08T11:59:00.630Z,9.87
2023-02-08T12:01:30.468Z,9.73
2023-02-08T12:04:00.772Z,9.40
2023-02-08T12:06:58.631Z,10.30
2023-02-08T12:09:43.766Z,9.80
2023-02-08T12:12:23.536Z,10.03
2023-02-08T12:15:01.844Z,9.47
2023-02-08T12:18:02.110Z,10.47
2023-02-08T12:20:48.267Z,10.33
2023-02-08T12:23:35.107Z,10.17
2023-02-08T12:26:19.586Z,9.33
2023-02-08T12:29:02.114Z,8.27
2023-02-08T12:31:43.846Z,9.73
2023-02-08T12:34:43.614Z,9.40
2023-02-08T12:37:41.269Z,9.17
2023-02-08T12:40:40.258Z,9.63
2023-02-08T12:43:22.822Z,10.43
2023-02-08T12:46:16.286Z,10.77
2023-02-08T12:49:03.453Z,11.47
2023-02-08T12:51:42.029Z,11.00
2023-02-08T12:54:14.082Z,10.73
2023-02-08T12:56:53.643Z,10.70
2023-02-08T12:59:35.268Z,11.00
2023-02-08T13:02:10.454Z,10.63
2023-02-08T13:04:42.195Z,11.10
2023-02-08T13:07:14.248Z,11.70
2023-02-08T13:09:48.185Z,11.53
2023-02-08T13:12:18.946Z,10.73
2023-02-08T13:14:53.453Z,10.13
2023-02-08T13:17:24.890Z,10.50
2023-02-08T13:20:00.383Z,11.43
2023-02-08T13:22:32.509Z,10.90
2023-02-08T13:25:07.672Z,10.97
2023-02-08T13:27:36.093Z,9.43
2023-02-08T13:30:07.481Z,10.80
2023-02-08T13:32:43.944Z,10.73
2023-02-08T13:35:17.213Z,10.97
2023-02-08T13:37:53.309Z,9.63
2023-02-08T13:40:28.197Z,9.93
2023-02-08T13:43:00.913Z,10.60
2023-02-08T13:45:33.009Z,11.67
2023-02-08T13:48:03.125Z,9.90
2023-02-08T13:50:43.935Z,9.77
2023-02-08T13:53:12.562Z,10.67
2023-02-08T13:55:57.485Z,10.73
2023-02-08T13:58:39.618Z,9.60
2023-02-08T14:01:21.605Z,10.93
2023-02-08T14:04:31.011Z,10.87
2023-02-08T14:07:04.707Z,9.90
2023-02-08T14:09:46.243Z,9.97
2023-02-08T14:12:22.946Z,10.50
2023-02-08T14:15:20.373Z,10.50
2023-02-08T14:17:51.568Z,11.67
2023-02-08T14:20:22.519Z,12.80
2023-02-08T14:22:52.686Z,13.83
2023-02-08T14:25:24.219Z,12.93
2023-02-08T14:27:55.104Z,12.27
2023-02-08T14:30:27.664Z,12.67
2023-02-08T14:33:16.186Z,12.77
2023-02-08T14:35:52.819Z,12.90
2023-02-08T14:38:53.061Z,12.13
2023-02-08T14:41:57.123Z,12.67
2023-02-08T14:44:48.872Z,12.43
2023-02-08T14:48:07.472Z,12.53
2023-02-08T14:50:42.139Z,13.00
2023-02-08T14:53:22.461Z,13.70
2023-02-08T14:55:53.436Z,13.73
2023-02-08T14:58:28.819Z,12.33
2023-02-08T15:01:00.355Z,13.07
2023-02-08T15:03:31.484Z,13.07
2023-02-08T15:06:21.841Z,13.83
2023-02-08T15:08:55.134Z,12.73
2023-02-08T15:11:27.628Z,12.97
2023-02-08T15:13:59.927Z,13.80
2023-02-08T15:16:34.101Z,12.93
2023-02-08T15:19:03.825Z,13.00
2023-02-08T15:21:36.663Z,13.77
2023-02-08T15:24:14.010Z,13.47
2023-02-08T15:26:56.650Z,12.90
2023-02-08T15:29:39.051Z,13.87
2023-02-08T15:32:16.372Z,14.47
2023-02-08T15:34:45.994Z,14.13
2023-02-08T15:37:17.608Z,13.47
2023-02-08T15:39:46.863Z,15.27
2023-02-08T15:42:18.766Z,13.17
2023-02-08T15:44:48.091Z,13.40
2023-02-08T15:47:18.884Z,13.33
2023-02-08T15:49:50.778Z,13.93
2023-02-08T15:52:23.103Z,12.53
2023-02-08T15:54:51.994Z,13.43
2023-02-08T15:57:33.287Z,13.17
2023-02-08T16:00:02.027Z,13.77
2023-02-08T16:02:32.008Z,12.95
2023-02-08T16:05:01.920Z,14.20
2023-02-08T16:07:36.005Z,13.23
2023-02-08T16:10:05.487Z,12.37
2023-02-08T16:12:33.683Z,12.50
2023-02-08T16:15:01.607Z,11.90
2023-02-08T16:17:43.736Z,13.40
2023-02-08T16:20:30.144Z,13.10
2023-02-08T16:23:03.228Z,12.33
2023-02-08T16:25:43.225Z,12.97
2023-02-08T16:28:26.297Z,13.60
2023-02-08T16:30:54.296Z,14.10
2023-02-08T16:33:22.184Z,12.80
2023-02-08T16:35:50.229Z,13.13
2023-02-08T16:38:23.330Z,12.53
2023-02-08T16:40:52.552Z,13.23
2023-02-08T16:43:23.792Z,14.67
2023-02-08T16:46:24.437Z,13.83
2023-02-08T16:48:54.629Z,12.73
2023-02-08T16:51:24.832Z,13.33
2023-02-08T16:53:57.293Z,13.90
2023-02-08T16:56:25.465Z,13.17
2023-02-08T16:58:53.433Z,13.43
2023-02-08T17:01:24.242Z,13.27
2023-02-08T17:03:53.017Z,14.30
2023-02-08T17:06:30.449Z,13.80
2023-02-08T17:09:00.974Z,13.40
2023-02-08T17:11:29.452Z,13.77
2023-02-08T17:13:58.336Z,13.90
2023-02-08T17:16:28.129Z,13.80
2023-02-08T17:18:56.727Z,13.80
2023-02-08T17:21:24.696Z,14.63
2023-02-08T17:23:52.380Z,13.63
2023-02-08T17:26:24.149Z,13.93
2023-02-08T17:28:51.837Z,14.60
2023-02-08T17:31:20.131Z,15.20
2023-02-08T17:33:50.205Z,14.43
2023-02-08T17:36:18.469Z,15.07
2023-02-08T17:38:48.287Z,14.23
2023-02-08T17:41:18.098Z,14.43
2023-02-08T17:43:47.726Z,16.03
2023-02-08T17:46:18.048Z,14.93
2023-02-08T17:48:48.120Z,14.67
2023-02-08T17:51:17.860Z,15.63
2023-02-08T17:53:46.143Z,15.43
2023-02-08T17:56:16.130Z,16.30
2023-02-08T17:58:43.959Z,15.10
2023-02-08T18:01:17.793Z,16.03
2023-02-08T18:03:45.888Z,16.47
2023-02-08T18:06:14.376Z,15.37
2023-02-08T18:08:42.331Z,16.27
2023-02-08T18:11:12.869Z,15.20
2023-02-08T18:13:40.738Z,15.70
2023-02-08T18:16:09.957Z,15.60
2023-02-08T18:18:39.611Z,16.20
2023-02-08T18:21:12.138Z,15.60
2023-02-08T18:23:40.373Z,15.27
2023-02-08T18:26:11.246Z,15.40
2023-02-08T18:28:40.769Z,15.60
2023-02-08T18:31:14.492Z,15.73
2023-02-08T18:33:44.884Z,16.30
2023-02-08T18:36:13.820Z,15.73
2023-02-08T18:38:45.508Z,16.60
2023-02-08T18:41:15.330Z,16.87
2023-02-08T18:43:44.180Z,17.37
2023-02-08T18:46:15.072Z,16.53
2023-02-08T18:48:44.844Z,17.10
2023-02-08T18:51:16.254Z,17.10
2023-02-08T18:53:44.061Z,16.73
2023-02-08T18:56:13.666Z,17.77
2023-02-08T18:58:41.836Z,18.90
2023-02-08T19:01:12.295Z,17.83
2023-02-08T19:03:40.477Z,16.83
2023-02-08T19:06:11.861Z,16.53
2023-02-08T19:08:40.311Z,17.27
2023-02-08T19:11:16.062Z,17.13
2023-02-08T19:13:44.102Z,17.93
2023-02-08T19:16:12.682Z,17.43
2023-02-08T19:18:40.791Z,17.67
2023-02-08T19:21:12.015Z,19.17
2023-02-08T19:23:39.855Z,18.70
2023-02-08T19:26:10.040Z,19.63
2023-02-08T19:28:37.897Z,17.60
2023-02-08T19:31:08.575Z,17.10
2023-02-08T19:33:36.509Z,18.10
2023-02-08T19:36:09.715Z,17.47
2023-02-08T19:38:37.875Z,18.93
2023-02-08T19:41:06.755Z,17.10
2023-02-08T19:43:35.584Z,18.87
2023-02-08T19:46:03.465Z,19.17
2023-02-08T19:48:32.503Z,18.73
2023-02-08T19:51:01.475Z,18.53
2023-02-08T19:53:30.870Z,18.13
2023-02-08T19:55:59.925Z,19.30
2023-02-08T19:58:28.892Z,18.83
2023-02-08T20:00:56.873Z,18.77
2023-02-08T20:03:25.200Z,20.00
2023-02-08T20:05:54.937Z,19.17
2023-02-08T20:08:25.871Z,21.07
2023-02-08T20:10:56.681Z,20.07
2023-02-08T20:13:25.265Z,19.03
2023-02-08T20:15:59.654Z,18.53
2023-02-08T20:18:27.428Z,19.03
2023-02-08T20:21:02.172Z,19.37
2023-02-08T20:23:30.452Z,18.67
2023-02-08T20:26:08.798Z,19.00
2023-02-08T20:28:37.410Z,18.57
2023-02-08T20:31:08.620Z,19.90
2023-02-08T20:33:38.095Z,18.87
2023-02-08T20:36:09.457Z,18.97
2023-02-08T20:38:38.358Z,19.37
2023-02-08T20:41:10.031Z,19.50
2023-02-08T20:43:41.253Z,19.37
2023-02-08T20:46:11.524Z,20.37
2023-02-08T20:48:40.955Z,19.13
2023-02-08T20:51:11.157Z,19.93
2023-02-08T20:53:42.199Z,20.30
2023-02-08T20:56:13.617Z,21.07
2023-02-08T20:58:41.834Z,18.27
2023-02-08T21:01:10.170Z,18.97
2023-02-08T21:03:38.034Z,19.73
2023-02-08T21:06:14.471Z,19.00
2023-02-08T21:08:47.911Z,18.67
2023-02-08T21:11:17.638Z,18.20
2023-02-08T21:13:48.035Z,18.20
2023-02-08T21:16:17.783Z,20.03
2023-02-08T21:18:47.162Z,19.03
2023-02-08T21:21:18.423Z,18.90
2023-02-08T21:23:46.670Z,18.83
2023-02-08T21:26:18.514Z,17.93
2023-02-08T21:28:48.764Z,17.53
2023-02-08T21:31:19.729Z,17.67
2023-02-08T21:33:47.799Z,17.00
2023-02-08T21:36:19.484Z,15.10
2023-02-08T21:38:48.170Z,17.87
2023-02-08T21:41:20.441Z,17.73
2023-02-08T21:43:51.078Z,16.73
2023-02-08T21:46:19.544Z,17.40
2023-02-08T21:49:20.842Z,16.53
2023-02-08T21:52:08.713Z,16.07
2023-02-08T21:54:44.329Z,17.87
2023-02-08T21:57:17.823Z,16.70
2023-02-08T21:59:48.469Z,18.07
2023-02-08T22:02:23.756Z,16.37
2023-02-08T22:04:52.171Z,16.03
2023-02-08T22:07:20.111Z,16.43
2023-02-08T22:09:48.151Z,16.13
2023-02-08T22:12:22.944Z,17.23
2023-02-08T22:14:51.200Z,17.13
2023-02-08T22:17:20.828Z,16.77
2023-02-08T22:19:49.583Z,16.23
2023-02-08T22:22:19.000Z,16.63
2023-02-08T22:24:48.605Z,17.77
2023-02-08T22:27:18.043Z,17.30
2023-02-08T22:29:47.379Z,17.33
2023-02-08T22:32:17.117Z,16.23
2023-02-08T22:34:45.062Z,15.77
2023-02-08T22:37:13.042Z,17.23
2023-02-08T22:39:43.417Z,17.57
2023-02-08T22:42:15.843Z,17.37
2023-02-08T22:44:45.674Z,18.93
2023-02-08T22:47:14.427Z,17.77
2023-02-08T22:49:42.294Z,17.33
2023-02-08T22:52:12.236Z,17.40
2023-02-08T22:54:40.035Z,17.17
2023-02-08T22:57:09.662Z,17.60
2023-02-08T22:59:38.625Z,17.23
2023-02-08T23:02:10.440Z,17.30
2023-02-08T23:04:39.015Z,18.03
2023-02-08T23:07:07.512Z,17.53
2023-02-08T23:09:35.284Z,17.47
2023-02-08T23:12:03.138Z,17.40
2023-02-08T23:14:30.924Z,16.83
2023-02-08T23:16:58.741Z,16.90
2023-02-08T23:19:28.072Z,15.50
2023-02-08T23:21:59.366Z,16.53
2023-02-08T23:24:27.445Z,16.27
2023-02-08T23:26:55.241Z,15.30
2023-02-08T23:29:22.949Z,15.50
2023-02-08T23:31:50.910Z,14.83
2023-02-08T23:34:19.162Z,15.93
2023-02-08T23:36:48.542Z,14.73
2023-02-08T23:39:16.250Z,14.07
2023-02-08T23:41:43.981Z,14.40
2023-02-08T23:44:12.202Z,14.87
2023-02-08T23:46:40.057Z,15.33
2023-02-08T23:49:07.851Z,14.77
2023-02-08T23:51:35.567Z,13.90
2023-02-08T23:54:04.760Z,12.83
2023-02-08T23:56:32.920Z,13.50
2023-02-08T23:59:00.855Z,13.40
